sensor_id;sensor_type;location;lat;lon;timestamp;noise_LAeq;noise_LA_min;noise_LA_max;noise_LA01;noise_LA95
40103;Laerm;25814;48.550;9.108;2023-06-14T00:00:43;30.91;29.77;35.84;;
40103;Laerm;25814;48.550;9.108;2023-06-14T00:03:10;30.90;29.78;46.61;;
40103;Laerm;25814;48.550;9.108;2023-06-14T00:05:37;30.88;29.70;43.94;;
40103;Laerm;25814;48.550;9.108;2023-06-14T00:08:07;30.80;29.78;46.39;;
40103;Laerm;25814;48.550;9.108;2023-06-14T00:10:34;30.73;29.76;32.89;;
40103;Laerm;25814;48.550;9.108;2023-06-14T00:13:01;30.99;29.71;38.23;;
40103;Laerm;25814;48.550;9.108;2023-06-14T00:15:28;31.08;29.77;37.98;;
40103;Laerm;25814;48.550;9.108;2023-06-14T00:17:56;31.02;29.88;47.94;;
40103;Laerm;25814;48.550;9.108;2023-06-14T00:20:30;34.03;29.68;47.70;;
40103;Laerm;25814;48.550;9.108;2023-06-14T00:23:01;30.76;29.60;42.73;;
40103;Laerm;25814;48.550;9.108;2023-06-14T00:25:27;30.73;29.62;36.37;;
40103;Laerm;25814;48.550;9.108;2023-06-14T00:27:55;30.98;29.76;46.19;;
40103;Laerm;25814;48.550;9.108;2023-06-14T00:30:21;30.84;29.71;38.21;;
40103;Laerm;25814;48.550;9.108;2023-06-14T00:32:47;30.78;29.71;38.57;;
40103;Laerm;25814;48.550;9.108;2023-06-14T00:35:14;30.72;29.74;32.87;;
40103;Laerm;25814;48.550;9.108;2023-06-14T00:37:40;33.22;29.82;43.79;;
40103;Laerm;25814;48.550;9.108;2023-06-14T00:40:06;32.11;29.61;43.38;;
40103;Laerm;25814;48.550;9.108;2023-06-14T00:42:32;30.71;29.59;33.17;;
40103;Laerm;25814;48.550;9.108;2023-06-14T00:45:00;30.78;29.75;43.03;;
40103;Laerm;25814;48.550;9.108;2023-06-14T00:47:26;30.72;29.52;32.95;;
40103;Laerm;25814;48.550;9.108;2023-06-14T00:49:54;30.79;29.71;36.85;;
40103;Laerm;25814;48.550;9.108;2023-06-14T00:52:22;30.95;29.75;43.54;;
40103;Laerm;25814;48.550;9.108;2023-06-14T00:54:49;30.95;29.75;34.12;;
40103;Laerm;25814;48.550;9.108;2023-06-14T00:57:16;30.99;29.66;37.27;;
40103;Laerm;25814;48.550;9.108;2023-06-14T00:59:47;30.96;29.80;33.86;;
40103;Laerm;25814;48.550;9.108;2023-06-14T01:02:14;31.00;29.77;44.24;;
40103;Laerm;25814;48.550;9.108;2023-06-14T01:04:41;30.92;29.83;34.82;;
40103;Laerm;25814;48.550;9.108;2023-06-14T01:12:51;30.77;29.69;33.67;;
40103;Laerm;25814;48.550;9.108;2023-06-14T01:15:20;30.84;29.75;45.54;;
40103;Laerm;25814;48.550;9.108;2023-06-14T01:17:49;31.67;29.78;41.03;;
40103;Laerm;25814;48.550;9.108;2023-06-14T01:20:19;33.55;29.82;46.42;;
40103;Laerm;25814;48.550;9.108;2023-06-14T01:22:53;30.92;29.76;34.88;;
40103;Laerm;25814;48.550;9.108;2023-06-14T01:25:20;30.78;29.84;33.47;;
40103;Laerm;25814;48.550;9.108;2023-06-14T01:28:07;30.76;29.76;33.32;;
40103;Laerm;25814;48.550;9.108;2023-06-14T01:30:42;30.79;29.81;33.16;;
40103;Laerm;25814;48.550;9.108;2023-06-14T01:33:13;30.82;29.80;33.66;;
40103;Laerm;25814;48.550;9.108;2023-06-14T01:35:45;30.93;29.72;45.88;;
40103;Laerm;25814;48.550;9.108;2023-06-14T01:38:13;30.82;29.91;33.18;;
40103;Laerm;25814;48.550;9.108;2023-06-14T01:40:40;30.92;29.81;33.96;;
40103;Laerm;25814;48.550;9.108;2023-06-14T01:43:11;30.94;29.83;40.41;;
40103;Laerm;25814;48.550;9.108;2023-06-14T01:45:40;31.07;29.77;46.06;;
40103;Laerm;25814;48.550;9.108;2023-06-14T01:48:07;30.86;29.84;34.48;;
40103;Laerm;25814;48.550;9.108;2023-06-14T01:50:33;30.96;29.84;46.33;;
40103;Laerm;25814;48.550;9.108;2023-06-14T01:53:00;30.85;29.75;33.60;;
40103;Laerm;25814;48.550;9.108;2023-06-14T01:55:26;31.33;29.82;46.27;;
40103;Laerm;25814;48.550;9.108;2023-06-14T01:57:53;31.66;29.65;37.06;;
40103;Laerm;25814;48.550;9.108;2023-06-14T02:00:20;30.96;29.77;46.26;;
40103;Laerm;25814;48.550;9.108;2023-06-14T02:02:47;30.80;29.82;43.16;;
40103;Laerm;25814;48.550;9.108;2023-06-14T02:05:14;30.74;29.73;32.88;;
40103;Laerm;25814;48.550;9.108;2023-06-14T02:07:44;31.51;29.78;46.44;;
40103;Laerm;25814;48.550;9.108;2023-06-14T02:10:11;31.08;29.84;34.94;;
40103;Laerm;25814;48.550;9.108;2023-06-14T02:12:37;34.94;29.88;52.72;;
40103;Laerm;25814;48.550;9.108;2023-06-14T02:15:03;41.16;29.87;54.53;;
40103;Laerm;25814;48.550;9.108;2023-06-14T02:17:31;38.26;29.96;53.17;;
40103;Laerm;25814;48.550;9.108;2023-06-14T02:19:57;38.46;30.12;55.22;;
40103;Laerm;25814;48.550;9.108;2023-06-14T02:22:23;39.23;30.06;50.12;;
40103;Laerm;25814;48.550;9.108;2023-06-14T02:24:49;39.37;30.36;50.56;;
40103;Laerm;25814;48.550;9.108;2023-06-14T02:27:16;41.37;30.20;62.43;;
40103;Laerm;25814;48.550;9.108;2023-06-14T02:29:42;40.11;30.41;51.53;;
40103;Laerm;25814;48.550;9.108;2023-06-14T02:32:08;43.92;31.11;59.95;;
40103;Laerm;25814;48.550;9.108;2023-06-14T02:34:35;46.71;31.24;64.56;;
40103;Laerm;25814;48.550;9.108;2023-06-14T02:37:02;42.21;30.90;60.89;;
40103;Laerm;25814;48.550;9.108;2023-06-14T02:39:29;38.23;30.85;46.04;;
40103;Laerm;25814;48.550;9.108;2023-06-14T02:41:55;39.32;31.15;48.66;;
40103;Laerm;25814;48.550;9.108;2023-06-14T02:44:25;40.76;31.32;52.98;;
40103;Laerm;25814;48.550;9.108;2023-06-14T02:46:55;40.38;31.49;51.28;;
40103;Laerm;25814;48.550;9.108;2023-06-14T02:49:22;39.71;31.29;50.01;;
40103;Laerm;25814;48.550;9.108;2023-06-14T02:51:48;39.46;31.23;50.09;;
40103;Laerm;25814;48.550;9.108;2023-06-14T02:54:14;39.20;31.07;50.24;;
40103;Laerm;25814;48.550;9.108;2023-06-14T02:56:40;39.03;31.35;49.04;;
40103;Laerm;25814;48.550;9.108;2023-06-14T02:59:07;39.32;31.07;49.26;;
40103;Laerm;25814;48.550;9.108;2023-06-14T03:01:34;36.82;31.74;48.13;;
40103;Laerm;25814;48.550;9.108;2023-06-14T03:04:01;34.98;31.16;44.32;;
40103;Laerm;25814;48.550;9.108;2023-06-14T03:06:31;39.22;31.04;58.13;;
40103;Laerm;25814;48.550;9.108;2023-06-14T03:08:59;42.83;31.22;61.53;;
40103;Laerm;25814;48.550;9.108;2023-06-14T03:11:26;39.66;31.40;59.92;;
40103;Laerm;25814;48.550;9.108;2023-06-14T03:13:53;42.88;31.38;61.54;;
40103;Laerm;25814;48.550;9.108;2023-06-14T03:16:20;42.27;31.23;63.00;;
40103;Laerm;25814;48.550;9.108;2023-06-14T03:18:50;43.37;31.29;52.54;;
40103;Laerm;25814;48.550;9.108;2023-06-14T03:21:16;44.74;31.33;53.58;;
40103;Laerm;25814;48.550;9.108;2023-06-14T03:23:43;39.88;31.43;52.56;;
40103;Laerm;25814;48.550;9.108;2023-06-14T03:26:09;39.48;31.07;53.12;;
40103;Laerm;25814;48.550;9.108;2023-06-14T03:28:39;34.97;31.26;46.01;;
40103;Laerm;25814;48.550;9.108;2023-06-14T03:31:05;36.06;31.48;48.33;;
40103;Laerm;25814;48.550;9.108;2023-06-14T03:33:32;33.78;31.33;50.11;;
40103;Laerm;25814;48.550;9.108;2023-06-14T03:35:58;43.77;31.19;63.92;;
40103;Laerm;25814;48.550;9.108;2023-06-14T03:38:24;35.77;30.94;54.44;;
40103;Laerm;25814;48.550;9.108;2023-06-14T03:40:50;43.90;31.07;62.90;;
40103;Laerm;25814;48.550;9.108;2023-06-14T03:43:16;32.22;31.00;42.71;;
40103;Laerm;25814;48.550;9.108;2023-06-14T03:45:42;44.46;30.94;64.43;;
40103;Laerm;25814;48.550;9.108;2023-06-14T03:48:09;46.04;31.01;68.22;;
40103;Laerm;25814;48.550;9.108;2023-06-14T03:50:35;34.62;31.43;42.30;;
40103;Laerm;25814;48.550;9.108;2023-06-14T03:53:03;41.42;31.49;52.63;;
40103;Laerm;25814;48.550;9.108;2023-06-14T03:55:30;45.57;31.24;61.35;;
40103;Laerm;25814;48.550;9.108;2023-06-14T03:57:57;45.34;30.88;56.20;;
40103;Laerm;25814;48.550;9.108;2023-06-14T04:00:23;43.36;31.02;60.48;;
40103;Laerm;25814;48.550;9.108;2023-06-14T04:02:49;40.06;31.21;53.63;;
40103;Laerm;25814;48.550;9.108;2023-06-14T04:05:15;46.92;31.40;59.45;;
40103;Laerm;25814;48.550;9.108;2023-06-14T04:07:42;47.68;31.44;62.68;;
40103;Laerm;25814;48.550;9.108;2023-06-14T04:10:13;41.99;31.34;62.03;;
40103;Laerm;25814;48.550;9.108;2023-06-14T04:12:39;34.79;31.46;48.10;;
40103;Laerm;25814;48.550;9.108;2023-06-14T04:15:05;34.29;31.69;43.14;;
40103;Laerm;25814;48.550;9.108;2023-06-14T04:17:33;37.49;32.24;45.65;;
40103;Laerm;25814;48.550;9.108;2023-06-14T04:20:01;46.71;32.25;55.87;;
40103;Laerm;25814;48.550;9.108;2023-06-14T04:22:29;40.85;33.00;52.67;;
40103;Laerm;25814;48.550;9.108;2023-06-14T04:24:56;37.47;31.93;57.51;;
40103;Laerm;25814;48.550;9.108;2023-06-14T04:27:23;39.18;32.00;53.83;;
40103;Laerm;25814;48.550;9.108;2023-06-14T04:29:52;52.43;32.80;62.23;;
40103;Laerm;25814;48.550;9.108;2023-06-14T04:32:26;42.24;32.08;54.22;;
40103;Laerm;25814;48.550;9.108;2023-06-14T04:34:53;41.70;31.89;54.09;;
40103;Laerm;25814;48.550;9.108;2023-06-14T04:37:20;39.77;32.83;54.06;;
40103;Laerm;25814;48.550;9.108;2023-06-14T04:39:47;40.74;31.89;58.38;;
40103;Laerm;25814;48.550;9.108;2023-06-14T04:42:13;40.62;32.00;61.06;;
40103;Laerm;25814;48.550;9.108;2023-06-14T04:44:42;35.51;31.61;49.67;;
40103;Laerm;25814;48.550;9.108;2023-06-14T04:47:09;41.93;32.42;55.10;;
40103;Laerm;25814;48.550;9.108;2023-06-14T04:49:36;44.49;32.68;55.78;;
40103;Laerm;25814;48.550;9.108;2023-06-14T04:52:03;45.52;33.33;58.19;;
40103;Laerm;25814;48.550;9.108;2023-06-14T04:54:29;45.71;32.65;59.99;;
40103;Laerm;25814;48.550;9.108;2023-06-14T04:56:57;39.08;31.66;54.42;;
40103;Laerm;25814;48.550;9.108;2023-06-14T04:59:23;37.53;31.53;52.72;;
40103;Laerm;25814;48.550;9.108;2023-06-14T05:01:51;42.05;31.46;56.51;;
40103;Laerm;25814;48.550;9.108;2023-06-14T05:04:19;43.05;31.35;64.68;;
40103;Laerm;25814;48.550;9.108;2023-06-14T05:06:46;44.23;31.79;55.00;;
40103;Laerm;25814;48.550;9.108;2023-06-14T05:09:16;42.77;31.64;54.29;;
40103;Laerm;25814;48.550;9.108;2023-06-14T05:11:42;36.94;31.95;47.24;;
40103;Laerm;25814;48.550;9.108;2023-06-14T05:14:11;38.16;31.94;57.14;;
40103;Laerm;25814;48.550;9.108;2023-06-14T05:16:37;34.41;31.90;49.10;;
40103;Laerm;25814;48.550;9.108;2023-06-14T05:19:04;34.31;31.87;50.21;;
40103;Laerm;25814;48.550;9.108;2023-06-14T05:21:31;45.63;32.83;56.83;;
40103;Laerm;25814;48.550;9.108;2023-06-14T05:23:59;46.10;32.57;56.29;;
40103;Laerm;25814;48.550;9.108;2023-06-14T05:26:25;41.49;32.02;58.23;;
40103;Laerm;25814;48.550;9.108;2023-06-14T05:28:57;42.75;31.81;55.14;;
40103;Laerm;25814;48.550;9.108;2023-06-14T05:31:26;51.96;31.42;65.79;;
40103;Laerm;25814;48.550;9.108;2023-06-14T05:33:53;43.24;31.99;54.87;;
40103;Laerm;25814;48.550;9.108;2023-06-14T05:36:19;42.54;33.11;55.03;;
40103;Laerm;25814;48.550;9.108;2023-06-14T05:38:49;38.94;31.24;51.77;;
40103;Laerm;25814;48.550;9.108;2023-06-14T05:41:16;38.05;31.36;51.18;;
40103;Laerm;25814;48.550;9.108;2023-06-14T05:43:42;40.69;31.98;57.07;;
40103;Laerm;25814;48.550;9.108;2023-06-14T05:46:08;47.76;31.90;58.87;;
40103;Laerm;25814;48.550;9.108;2023-06-14T05:48:34;44.09;31.50;53.59;;
40103;Laerm;25814;48.550;9.108;2023-06-14T05:51:00;42.85;31.95;53.47;;
40103;Laerm;25814;48.550;9.108;2023-06-14T05:53:26;44.11;31.17;54.88;;
40103;Laerm;25814;48.550;9.108;2023-06-14T05:55:52;37.12;31.35;48.82;;
40103;Laerm;25814;48.550;9.108;2023-06-14T05:58:20;34.88;31.06;50.92;;
40103;Laerm;25814;48.550;9.108;2023-06-14T06:00:47;36.50;31.31;50.43;;
40103;Laerm;25814;48.550;9.108;2023-06-14T06:03:13;39.09;31.23;63.98;;
40103;Laerm;25814;48.550;9.108;2023-06-14T06:05:39;47.16;31.27;70.07;;
40103;Laerm;25814;48.550;9.108;2023-06-14T06:08:05;41.48;31.24;67.17;;
40103;Laerm;25814;48.550;9.108;2023-06-14T06:10:32;44.40;32.03;56.94;;
40103;Laerm;25814;48.550;9.108;2023-06-14T06:12:58;37.12;30.96;57.29;;
40103;Laerm;25814;48.550;9.108;2023-06-14T06:15:24;42.54;31.29;52.31;;
40103;Laerm;25814;48.550;9.108;2023-06-14T06:17:50;43.19;31.59;59.66;;
40103;Laerm;25814;48.550;9.108;2023-06-14T06:20:16;37.02;30.72;50.38;;
40103;Laerm;25814;48.550;9.108;2023-06-14T06:22:42;37.24;30.84;55.64;;
40103;Laerm;25814;48.550;9.108;2023-06-14T06:25:09;39.61;30.95;53.98;;
40103;Laerm;25814;48.550;9.108;2023-06-14T06:27:35;39.26;31.42;55.43;;
40103;Laerm;25814;48.550;9.108;2023-06-14T06:30:03;39.17;30.73;56.59;;
40103;Laerm;25814;48.550;9.108;2023-06-14T06:32:29;40.89;31.43;53.14;;
40103;Laerm;25814;48.550;9.108;2023-06-14T06:34:55;39.92;30.69;54.77;;
40103;Laerm;25814;48.550;9.108;2023-06-14T06:37:21;42.37;30.52;56.21;;
40103;Laerm;25814;48.550;9.108;2023-06-14T06:39:48;38.24;30.38;57.54;;
40103;Laerm;25814;48.550;9.108;2023-06-14T06:42:14;37.00;30.73;46.44;;
40103;Laerm;25814;48.550;9.108;2023-06-14T06:44:40;41.77;30.81;54.19;;
40103;Laerm;25814;48.550;9.108;2023-06-14T06:47:06;38.81;31.37;56.31;;
40103;Laerm;25814;48.550;9.108;2023-06-14T06:49:32;36.27;32.48;48.87;;
40103;Laerm;25814;48.550;9.108;2023-06-14T06:51:59;34.36;30.64;51.17;;
40103;Laerm;25814;48.550;9.108;2023-06-14T06:54:27;39.14;30.69;61.90;;
40103;Laerm;25814;48.550;9.108;2023-06-14T06:56:53;49.23;31.41;57.75;;
40103;Laerm;25814;48.550;9.108;2023-06-14T06:59:20;42.80;31.19;56.15;;
40103;Laerm;25814;48.550;9.108;2023-06-14T07:01:46;45.66;31.38;55.47;;
40103;Laerm;25814;48.550;9.108;2023-06-14T07:04:13;47.35;34.44;57.23;;
40103;Laerm;25814;48.550;9.108;2023-06-14T07:06:39;43.98;34.15;58.42;;
40103;Laerm;25814;48.550;9.108;2023-06-14T07:09:05;47.70;30.07;57.70;;
40103;Laerm;25814;48.550;9.108;2023-06-14T07:11:37;41.41;30.92;55.58;;
40103;Laerm;25814;48.550;9.108;2023-06-14T07:14:03;40.93;30.40;52.55;;
40103;Laerm;25814;48.550;9.108;2023-06-14T07:16:29;37.18;30.91;52.84;;
40103;Laerm;25814;48.550;9.108;2023-06-14T07:18:56;43.77;31.83;55.41;;
40103;Laerm;25814;48.550;9.108;2023-06-14T07:21:22;44.45;30.59;58.39;;
40103;Laerm;25814;48.550;9.108;2023-06-14T07:23:48;46.16;30.52;67.57;;
40103;Laerm;25814;48.550;9.108;2023-06-14T07:26:14;36.84;30.49;50.51;;
40103;Laerm;25814;48.550;9.108;2023-06-14T07:28:40;41.29;30.72;63.47;;
40103;Laerm;25814;48.550;9.108;2023-06-14T07:31:10;42.52;30.12;68.73;;
40103;Laerm;25814;48.550;9.108;2023-06-14T07:33:38;39.29;30.55;54.14;;
40103;Laerm;25814;48.550;9.108;2023-06-14T07:36:04;47.65;30.66;60.27;;
40103;Laerm;25814;48.550;9.108;2023-06-14T07:38:30;42.57;30.44;62.56;;
40103;Laerm;25814;48.550;9.108;2023-06-14T07:40:56;36.80;30.22;52.00;;
40103;Laerm;25814;48.550;9.108;2023-06-14T07:43:22;44.13;30.57;61.18;;
40103;Laerm;25814;48.550;9.108;2023-06-14T07:45:49;44.60;31.13;62.83;;
40103;Laerm;25814;48.550;9.108;2023-06-14T07:48:15;40.29;30.38;57.40;;
40103;Laerm;25814;48.550;9.108;2023-06-14T07:50:41;46.39;32.00;61.47;;
40103;Laerm;25814;48.550;9.108;2023-06-14T07:53:07;41.22;30.63;62.94;;
40103;Laerm;25814;48.550;9.108;2023-06-14T07:55:33;36.07;29.91;56.45;;
40103;Laerm;25814;48.550;9.108;2023-06-14T07:58:06;44.72;30.89;57.18;;
40103;Laerm;25814;48.550;9.108;2023-06-14T08:00:32;39.79;31.74;52.01;;
40103;Laerm;25814;48.550;9.108;2023-06-14T08:02:58;43.31;30.71;56.37;;
40103;Laerm;25814;48.550;9.108;2023-06-14T08:05:28;49.90;31.09;72.43;;
40103;Laerm;25814;48.550;9.108;2023-06-14T08:07:54;43.86;30.24;63.24;;
40103;Laerm;25814;48.550;9.108;2023-06-14T08:10:22;44.49;30.76;55.24;;
40103;Laerm;25814;48.550;9.108;2023-06-14T08:12:48;41.87;33.13;51.87;;
40103;Laerm;25814;48.550;9.108;2023-06-14T08:15:18;42.87;31.02;61.12;;
40103;Laerm;25814;48.550;9.108;2023-06-14T08:17:45;38.38;30.43;48.76;;
40103;Laerm;25814;48.550;9.108;2023-06-14T08:20:11;35.83;31.18;48.23;;
40103;Laerm;25814;48.550;9.108;2023-06-14T08:22:38;38.43;31.81;47.20;;
40103;Laerm;25814;48.550;9.108;2023-06-14T08:25:07;41.34;32.42;60.07;;
40103;Laerm;25814;48.550;9.108;2023-06-14T08:27:34;38.65;31.50;57.12;;
40103;Laerm;25814;48.550;9.108;2023-06-14T08:30:00;38.07;30.65;54.33;;
40103;Laerm;25814;48.550;9.108;2023-06-14T08:32:27;35.79;31.37;46.96;;
40103;Laerm;25814;48.550;9.108;2023-06-14T08:34:53;37.34;31.59;48.76;;
40103;Laerm;25814;48.550;9.108;2023-06-14T08:37:19;42.58;32.52;55.59;;
40103;Laerm;25814;48.550;9.108;2023-06-14T08:39:46;37.72;33.11;48.94;;
40103;Laerm;25814;48.550;9.108;2023-06-14T08:42:14;41.27;34.01;55.72;;
40103;Laerm;25814;48.550;9.108;2023-06-14T08:44:41;44.27;34.00;60.45;;
40103;Laerm;25814;48.550;9.108;2023-06-14T08:47:07;41.10;34.72;54.27;;
40103;Laerm;25814;48.550;9.108;2023-06-14T08:49:36;38.53;31.68;47.72;;
40103;Laerm;25814;48.550;9.108;2023-06-14T08:52:05;37.64;32.86;52.01;;
40103;Laerm;25814;48.550;9.108;2023-06-14T08:54:33;40.63;32.44;48.18;;
40103;Laerm;25814;48.550;9.108;2023-06-14T08:57:11;38.18;30.96;44.60;;
40103;Laerm;25814;48.550;9.108;2023-06-14T08:59:47;39.25;31.61;47.96;;
40103;Laerm;25814;48.550;9.108;2023-06-14T09:02:17;44.71;32.66;62.74;;
40103;Laerm;25814;48.550;9.108;2023-06-14T09:04:47;42.70;34.14;61.35;;
40103;Laerm;25814;48.550;9.108;2023-06-14T09:07:15;37.51;31.47;48.85;;
40103;Laerm;25814;48.550;9.108;2023-06-14T09:09:41;38.30;31.31;61.58;;
40103;Laerm;25814;48.550;9.108;2023-06-14T09:12:11;36.72;30.62;52.13;;
40103;Laerm;25814;48.550;9.108;2023-06-14T09:14:38;43.69;30.69;50.69;;
40103;Laerm;25814;48.550;9.108;2023-06-14T09:17:06;43.18;31.29;51.09;;
40103;Laerm;25814;48.550;9.108;2023-06-14T09:19:34;44.60;30.95;64.05;;
40103;Laerm;25814;48.550;9.108;2023-06-14T09:22:03;44.31;31.33;65.26;;
40103;Laerm;25814;48.550;9.108;2023-06-14T09:24:29;46.91;31.46;64.42;;
40103;Laerm;25814;48.550;9.108;2023-06-14T09:26:56;44.53;31.90;63.83;;
40103;Laerm;25814;48.550;9.108;2023-06-14T09:29:23;39.15;30.79;54.16;;
40103;Laerm;25814;48.550;9.108;2023-06-14T09:31:49;44.25;30.51;60.12;;
40103;Laerm;25814;48.550;9.108;2023-06-14T09:34:16;39.89;34.42;57.34;;
40103;Laerm;25814;48.550;9.108;2023-06-14T09:36:44;42.14;31.13;53.68;;
40103;Laerm;25814;48.550;9.108;2023-06-14T09:39:17;43.21;30.47;56.02;;
40103;Laerm;25814;48.550;9.108;2023-06-14T09:41:43;36.46;31.87;50.59;;
40103;Laerm;25814;48.550;9.108;2023-06-14T09:44:10;36.35;31.52;46.28;;
40103;Laerm;25814;48.550;9.108;2023-06-14T09:46:37;38.44;33.26;51.39;;
40103;Laerm;25814;48.550;9.108;2023-06-14T09:49:05;36.34;32.71;44.36;;
40103;Laerm;25814;48.550;9.108;2023-06-14T09:51:31;37.79;32.31;51.16;;
40103;Laerm;25814;48.550;9.108;2023-06-14T09:54:02;37.48;31.96;48.69;;
40103;Laerm;25814;48.550;9.108;2023-06-14T09:56:37;39.02;32.39;58.33;;
40103;Laerm;25814;48.550;9.108;2023-06-14T09:59:09;40.07;33.76;45.77;;
40103;Laerm;25814;48.550;9.108;2023-06-14T10:01:41;42.71;30.03;53.93;;
40103;Laerm;25814;48.550;9.108;2023-06-14T10:04:09;33.45;30.13;46.56;;
40103;Laerm;25814;48.550;9.108;2023-06-14T10:06:39;35.96;30.65;56.72;;
40103;Laerm;25814;48.550;9.108;2023-06-14T10:09:09;38.82;30.70;57.58;;
40103;Laerm;25814;48.550;9.108;2023-06-14T10:11:36;34.46;30.68;47.30;;
40103;Laerm;25814;48.550;9.108;2023-06-14T10:14:06;35.21;30.75;43.87;;
40103;Laerm;25814;48.550;9.108;2023-06-14T10:16:56;36.58;31.23;49.20;;
40103;Laerm;25814;48.550;9.108;2023-06-14T10:19:31;39.70;30.96;53.83;;
40103;Laerm;25814;48.550;9.108;2023-06-14T10:22:11;39.43;31.78;58.73;;
40103;Laerm;25814;48.550;9.108;2023-06-14T10:24:42;35.32;31.86;44.15;;
40103;Laerm;25814;48.550;9.108;2023-06-14T10:27:08;40.38;35.35;52.30;;
40103;Laerm;25814;48.550;9.108;2023-06-14T10:32:19;39.79;32.54;54.88;;
40103;Laerm;25814;48.550;9.108;2023-06-14T10:34:54;39.70;33.31;52.17;;
40103;Laerm;25814;48.550;9.108;2023-06-14T10:37:20;36.90;32.87;46.88;;
40103;Laerm;25814;48.550;9.108;2023-06-14T10:39:46;41.20;35.16;47.94;;
40103;Laerm;25814;48.550;9.108;2023-06-14T10:42:13;42.24;32.38;52.86;;
40103;Laerm;25814;48.550;9.108;2023-06-14T10:44:45;34.80;30.52;55.52;;
40103;Laerm;25814;48.550;9.108;2023-06-14T10:47:29;53.79;30.77;76.83;;
40103;Laerm;25814;48.550;9.108;2023-06-14T10:52:33;47.49;30.50;70.72;;
40103;Laerm;25814;48.550;9.108;2023-06-14T10:57:30;38.22;30.29;56.48;;
40103;Laerm;25814;48.550;9.108;2023-06-14T10:59:58;48.41;30.60;73.41;;
40103;Laerm;25814;48.550;9.108;2023-06-14T11:02:59;46.87;31.22;63.33;;
40103;Laerm;25814;48.550;9.108;2023-06-14T11:05:29;39.22;32.64;57.82;;
40103;Laerm;25814;48.550;9.108;2023-06-14T11:08:04;46.12;34.65;64.78;;
40103;Laerm;25814;48.550;9.108;2023-06-14T11:10:38;39.69;31.42;54.99;;
40103;Laerm;25814;48.550;9.108;2023-06-14T11:13:05;41.92;30.89;53.36;;
40103;Laerm;25814;48.550;9.108;2023-06-14T11:15:33;48.32;31.55;67.98;;
40103;Laerm;25814;48.550;9.108;2023-06-14T11:18:01;45.55;30.34;68.22;;
40103;Laerm;25814;48.550;9.108;2023-06-14T11:20:31;46.21;30.59;67.27;;
40103;Laerm;25814;48.550;9.108;2023-06-14T11:22:58;41.35;31.66;64.94;;
40103;Laerm;25814;48.550;9.108;2023-06-14T11:25:24;41.50;30.62;60.42;;
40103;Laerm;25814;48.550;9.108;2023-06-14T11:27:52;43.17;31.79;56.91;;
40103;Laerm;25814;48.550;9.108;2023-06-14T11:30:18;34.50;31.15;50.47;;
40103;Laerm;25814;48.550;9.108;2023-06-14T11:32:48;36.10;31.21;48.23;;
40103;Laerm;25814;48.550;9.108;2023-06-14T11:35:16;37.89;30.17;47.78;;
40103;Laerm;25814;48.550;9.108;2023-06-14T11:37:43;43.84;30.84;65.72;;
40103;Laerm;25814;48.550;9.108;2023-06-14T11:40:11;43.53;30.95;69.59;;
40103;Laerm;25814;48.550;9.108;2023-06-14T11:42:40;42.76;31.90;63.22;;
40103;Laerm;25814;48.550;9.108;2023-06-14T11:45:10;45.24;30.66;65.56;;
40103;Laerm;25814;48.550;9.108;2023-06-14T11:47:38;52.99;30.11;71.19;;
40103;Laerm;25814;48.550;9.108;2023-06-14T11:50:10;42.41;30.13;60.05;;
40103;Laerm;25814;48.550;9.108;2023-06-14T11:52:37;33.40;30.03;47.54;;
40103;Laerm;25814;48.550;9.108;2023-06-14T11:55:03;41.06;30.02;60.51;;
40103;Laerm;25814;48.550;9.108;2023-06-14T11:57:34;47.11;31.16;66.51;;
40103;Laerm;25814;48.550;9.108;2023-06-14T12:00:03;45.45;30.42;65.98;;
40103;Laerm;25814;48.550;9.108;2023-06-14T12:02:37;43.67;31.02;62.14;;
40103;Laerm;25814;48.550;9.108;2023-06-14T12:05:06;50.28;32.10;66.18;;
40103;Laerm;25814;48.550;9.108;2023-06-14T12:07:34;45.84;30.72;66.54;;
40103;Laerm;25814;48.550;9.108;2023-06-14T12:10:03;51.18;30.68;69.38;;
40103;Laerm;25814;48.550;9.108;2023-06-14T12:12:35;48.36;30.28;67.36;;
40103;Laerm;25814;48.550;9.108;2023-06-14T12:15:07;48.26;30.46;65.96;;
40103;Laerm;25814;48.550;9.108;2023-06-14T12:17:34;48.73;29.40;65.21;;
40103;Laerm;25814;48.550;9.108;2023-06-14T12:22:37;47.84;29.73;67.20;;
40103;Laerm;25814;48.550;9.108;2023-06-14T12:25:04;36.28;31.42;48.40;;
40103;Laerm;25814;48.550;9.108;2023-06-14T12:27:31;51.20;30.89;66.21;;
40103;Laerm;25814;48.550;9.108;2023-06-14T12:30:01;55.23;30.94;65.67;;
40103;Laerm;25814;48.550;9.108;2023-06-14T12:32:28;54.32;31.47;65.55;;
40103;Laerm;25814;48.550;9.108;2023-06-14T12:34:55;54.23;31.14;65.10;;
40103;Laerm;25814;48.550;9.108;2023-06-14T12:37:21;51.26;30.81;70.55;;
40103;Laerm;25814;48.550;9.108;2023-06-14T12:39:47;38.28;32.00;54.30;;
40103;Laerm;25814;48.550;9.108;2023-06-14T12:42:13;41.37;30.98;64.92;;
40103;Laerm;25814;48.550;9.108;2023-06-14T12:44:40;39.47;29.85;51.45;;
40103;Laerm;25814;48.550;9.108;2023-06-14T12:47:07;34.39;29.64;44.91;;
40103;Laerm;25814;48.550;9.108;2023-06-14T12:49:33;33.33;29.68;49.37;;
40103;Laerm;25814;48.550;9.108;2023-06-14T12:51:59;39.96;30.34;47.64;;
40103;Laerm;25814;48.550;9.108;2023-06-14T12:54:25;36.29;31.01;50.46;;
40103;Laerm;25814;48.550;9.108;2023-06-14T12:56:51;35.89;31.12;55.52;;
40103;Laerm;25814;48.550;9.108;2023-06-14T12:59:18;45.23;31.09;66.93;;
40103;Laerm;25814;48.550;9.108;2023-06-14T13:01:44;45.00;30.29;68.06;;
40103;Laerm;25814;48.550;9.108;2023-06-14T13:04:10;42.03;31.55;62.24;;
40103;Laerm;25814;48.550;9.108;2023-06-14T13:06:37;41.15;33.53;56.79;;
40103;Laerm;25814;48.550;9.108;2023-06-14T13:09:04;42.55;32.08;61.44;;
40103;Laerm;25814;48.550;9.108;2023-06-14T13:11:31;41.29;31.09;64.09;;
40103;Laerm;25814;48.550;9.108;2023-06-14T13:13:57;33.11;29.75;42.44;;
40103;Laerm;25814;48.550;9.108;2023-06-14T13:16:23;35.84;30.73;44.72;;
40103;Laerm;25814;48.550;9.108;2023-06-14T13:18:49;36.48;31.21;42.99;;
40103;Laerm;25814;48.550;9.108;2023-06-14T13:21:15;40.80;30.85;68.05;;
40103;Laerm;25814;48.550;9.108;2023-06-14T13:23:41;38.07;31.48;48.94;;
40103;Laerm;25814;48.550;9.108;2023-06-14T13:26:07;42.80;33.55;55.73;;
40103;Laerm;25814;48.550;9.108;2023-06-14T13:28:33;46.10;30.43;62.79;;
40103;Laerm;25814;48.550;9.108;2023-06-14T13:31:00;42.57;30.41;57.05;;
40103;Laerm;25814;48.550;9.108;2023-06-14T13:33:27;42.55;31.66;50.47;;
40103;Laerm;25814;48.550;9.108;2023-06-14T13:35:53;40.62;33.71;49.08;;
40103;Laerm;25814;48.550;9.108;2023-06-14T13:38:19;43.07;33.22;62.08;;
40103;Laerm;25814;48.550;9.108;2023-06-14T13:40:45;45.46;32.24;65.00;;
40103;Laerm;25814;48.550;9.108;2023-06-14T13:43:11;38.89;31.18;56.70;;
40103;Laerm;25814;48.550;9.108;2023-06-14T13:45:37;40.48;30.31;58.18;;
40103;Laerm;25814;48.550;9.108;2023-06-14T13:48:04;48.83;30.70;70.83;;
40103;Laerm;25814;48.550;9.108;2023-06-14T13:50:30;42.00;30.66;61.98;;
40103;Laerm;25814;48.550;9.108;2023-06-14T13:52:56;44.04;31.39;61.01;;
40103;Laerm;25814;48.550;9.108;2023-06-14T13:55:22;35.21;30.83;51.06;;
40103;Laerm;25814;48.550;9.108;2023-06-14T13:57:48;34.15;30.38;44.70;;
40103;Laerm;25814;48.550;9.108;2023-06-14T14:00:14;45.73;29.92;66.52;;
40103;Laerm;25814;48.550;9.108;2023-06-14T14:02:41;50.53;31.18;68.08;;